sensor_id;sensor_type;location;lat;lon;timestamp;P1;durP1;ratioP1;P2;durP2;ratioP2
55314;SDS011;41619;42.816;23.226;2022-10-31T00:00:50;26.10;;;11.05;;
55314;SDS011;41619;42.816;23.226;2022-10-31T00:03:16;20.95;;;10.63;;
55314;SDS011;41619;42.816;23.226;2022-10-31T00:05:46;19.05;;;9.73;;
55314;SDS011;41619;42.816;23.226;2022-10-31T00:08:13;21.40;;;9.88;;
55314;SDS011;41619;42.816;23.226;2022-10-31T00:10:39;23.13;;;9.27;;
55314;SDS011;41619;42.816;23.226;2022-10-31T00:13:05;16.30;;;9.63;;
55314;SDS011;41619;42.816;23.226;2022-10-31T00:15:32;20.67;;;10.43;;
55314;SDS011;41619;42.816;23.226;2022-10-31T00:17:58;15.10;;;8.48;;
55314;SDS011;41619;42.816;23.226;2022-10-31T00:20:23;19.73;;;9.38;;
55314;SDS011;41619;42.816;23.226;2022-10-31T00:22:49;14.05;;;8.98;;
55314;SDS011;41619;42.816;23.226;2022-10-31T00:25:14;12.73;;;8.65;;
55314;SDS011;41619;42.816;23.226;2022-10-31T00:27:40;16.10;;;8.15;;
55314;SDS011;41619;42.816;23.226;2022-10-31T00:30:06;16.08;;;8.88;;
55314;SDS011;41619;42.816;23.226;2022-10-31T00:32:31;21.77;;;8.60;;
55314;SDS011;41619;42.816;23.226;2022-10-31T00:34:57;22.17;;;8.93;;
55314;SDS011;41619;42.816;23.226;2022-10-31T00:37:22;16.13;;;9.05;;
55314;SDS011;41619;42.816;23.226;2022-10-31T00:39:48;14.48;;;9.05;;
55314;SDS011;41619;42.816;23.226;2022-10-31T00:42:14;20.80;;;9.52;;
55314;SDS011;41619;42.816;23.226;2022-10-31T00:44:40;21.65;;;10.27;;
55314;SDS011;41619;42.816;23.226;2022-10-31T00:47:05;19.67;;;9.57;;
55314;SDS011;41619;42.816;23.226;2022-10-31T00:49:30;18.67;;;9.10;;
55314;SDS011;41619;42.816;23.226;2022-10-31T00:51:56;18.38;;;8.93;;
55314;SDS011;41619;42.816;23.226;2022-10-31T00:54:21;20.48;;;10.90;;
55314;SDS011;41619;42.816;23.226;2022-10-31T00:56:47;17.13;;;9.18;;
55314;SDS011;41619;42.816;23.226;2022-10-31T00:59:12;13.52;;;8.70;;
55314;SDS011;41619;42.816;23.226;2022-10-31T01:01:37;18.92;;;9.82;;
55314;SDS011;41619;42.816;23.226;2022-10-31T01:04:03;21.02;;;9.90;;
55314;SDS011;41619;42.816;23.226;2022-10-31T01:06:28;16.80;;;9.75;;
55314;SDS011;41619;42.816;23.226;2022-10-31T01:08:54;17.65;;;9.55;;
55314;SDS011;41619;42.816;23.226;2022-10-31T01:11:20;16.48;;;9.15;;
55314;SDS011;41619;42.816;23.226;2022-10-31T01:13:47;19.27;;;9.35;;
55314;SDS011;41619;42.816;23.226;2022-10-31T01:16:15;18.52;;;9.93;;
55314;SDS011;41619;42.816;23.226;2022-10-31T01:18:43;19.73;;;10.63;;
55314;SDS011;41619;42.816;23.226;2022-10-31T01:21:10;22.52;;;11.13;;
55314;SDS011;41619;42.816;23.226;2022-10-31T01:23:37;22.77;;;12.07;;
55314;SDS011;41619;42.816;23.226;2022-10-31T01:26:08;18.38;;;11.68;;
55314;SDS011;41619;42.816;23.226;2022-10-31T01:28:39;21.40;;;11.52;;
55314;SDS011;41619;42.816;23.226;2022-10-31T01:31:09;22.85;;;11.80;;
55314;SDS011;41619;42.816;23.226;2022-10-31T01:33:35;18.92;;;10.45;;
55314;SDS011;41619;42.816;23.226;2022-10-31T01:36:01;19.90;;;11.43;;
55314;SDS011;41619;42.816;23.226;2022-10-31T01:38:36;18.92;;;10.30;;
55314;SDS011;41619;42.816;23.226;2022-10-31T01:41:01;17.42;;;10.45;;
55314;SDS011;41619;42.816;23.226;2022-10-31T01:43:41;16.77;;;9.20;;
55314;SDS011;41619;42.816;23.226;2022-10-31T01:46:07;13.90;;;8.98;;
55314;SDS011;41619;42.816;23.226;2022-10-31T01:48:32;14.40;;;9.07;;
55314;SDS011;41619;42.816;23.226;2022-10-31T01:50:58;22.23;;;10.13;;
55314;SDS011;41619;42.816;23.226;2022-10-31T01:53:24;14.90;;;9.55;;
55314;SDS011;41619;42.816;23.226;2022-10-31T01:55:50;20.23;;;10.55;;
55314;SDS011;41619;42.816;23.226;2022-10-31T01:58:20;17.23;;;10.48;;
55314;SDS011;41619;42.816;23.226;2022-10-31T02:00:51;17.40;;;10.63;;
55314;SDS011;41619;42.816;23.226;2022-10-31T02:03:21;17.80;;;10.65;;
55314;SDS011;41619;42.816;23.226;2022-10-31T02:05:47;19.95;;;10.70;;
55314;SDS011;41619;42.816;23.226;2022-10-31T02:08:27;15.25;;;9.95;;
55314;SDS011;41619;42.816;23.226;2022-10-31T02:10:55;16.50;;;10.05;;
55314;SDS011;41619;42.816;23.226;2022-10-31T02:13:22;18.58;;;9.13;;
55314;SDS011;41619;42.816;23.226;2022-10-31T02:15:49;20.67;;;9.95;;
55314;SDS011;41619;42.816;23.226;2022-10-31T02:18:17;14.20;;;9.48;;
55314;SDS011;41619;42.816;23.226;2022-10-31T02:23:33;15.27;;;9.27;;
55314;SDS011;41619;42.816;23.226;2022-10-31T02:26:09;19.77;;;9.80;;
55314;SDS011;41619;42.816;23.226;2022-10-31T02:31:22;20.98;;;10.10;;
55314;SDS011;41619;42.816;23.226;2022-10-31T02:37:12;17.90;;;9.75;;
55314;SDS011;41619;42.816;23.226;2022-10-31T02:39:50;14.60;;;9.63;;
55314;SDS011;41619;42.816;23.226;2022-10-31T02:47:32;19.17;;;9.80;;
55314;SDS011;41619;42.816;23.226;2022-10-31T02:52:43;25.15;;;11.52;;
55314;SDS011;41619;42.816;23.226;2022-10-31T02:55:12;22.95;;;9.20;;
55314;SDS011;41619;42.816;23.226;2022-10-31T02:58:02;19.83;;;9.77;;
55314;SDS011;41619;42.816;23.226;2022-10-31T03:00:34;16.02;;;8.60;;
55314;SDS011;41619;42.816;23.226;2022-10-31T03:08:41;14.52;;;8.65;;
55314;SDS011;41619;42.816;23.226;2022-10-31T03:11:37;14.43;;;7.78;;
55314;SDS011;41619;42.816;23.226;2022-10-31T03:14:12;19.58;;;8.38;;
55314;SDS011;41619;42.816;23.226;2022-10-31T03:16:45;15.10;;;8.02;;
55314;SDS011;41619;42.816;23.226;2022-10-31T03:19:15;15.70;;;8.25;;
55314;SDS011;41619;42.816;23.226;2022-10-31T03:21:59;14.40;;;7.95;;
55314;SDS011;41619;42.816;23.226;2022-10-31T03:24:30;15.15;;;8.27;;
55314;SDS011;41619;42.816;23.226;2022-10-31T03:27:01;19.35;;;8.10;;
55314;SDS011;41619;42.816;23.226;2022-10-31T03:29:30;17.67;;;8.68;;
55314;SDS011;41619;42.816;23.226;2022-10-31T03:35:03;14.30;;;8.48;;
55314;SDS011;41619;42.816;23.226;2022-10-31T03:37:32;16.48;;;8.38;;
55314;SDS011;41619;42.816;23.226;2022-10-31T03:40:00;17.85;;;8.30;;
55314;SDS011;41619;42.816;23.226;2022-10-31T03:42:29;14.05;;;7.60;;
55314;SDS011;41619;42.816;23.226;2022-10-31T03:44:57;13.40;;;8.27;;
55314;SDS011;41619;42.816;23.226;2022-10-31T03:47:28;12.30;;;8.13;;
55314;SDS011;41619;42.816;23.226;2022-10-31T03:49:53;17.80;;;9.77;;
55314;SDS011;41619;42.816;23.226;2022-10-31T03:55:07;14.13;;;8.88;;
55314;SDS011;41619;42.816;23.226;2022-10-31T03:57:41;13.30;;;8.93;;
55314;SDS011;41619;42.816;23.226;2022-10-31T04:00:12;17.75;;;9.52;;
55314;SDS011;41619;42.816;23.226;2022-10-31T04:02:43;15.13;;;9.48;;
55314;SDS011;41619;42.816;23.226;2022-10-31T04:05:14;21.38;;;9.98;;
55314;SDS011;41619;42.816;23.226;2022-10-31T04:07:42;17.95;;;9.93;;
55314;SDS011;41619;42.816;23.226;2022-10-31T04:10:12;20.95;;;9.98;;
55314;SDS011;41619;42.816;23.226;2022-10-31T04:12:39;19.23;;;9.82;;
55314;SDS011;41619;42.816;23.226;2022-10-31T04:15:08;19.83;;;9.15;;
55314;SDS011;41619;42.816;23.226;2022-10-31T04:17:36;26.85;;;10.82;;
55314;SDS011;41619;42.816;23.226;2022-10-31T04:20:04;19.10;;;9.60;;
55314;SDS011;41619;42.816;23.226;2022-10-31T04:22:30;18.30;;;10.38;;
55314;SDS011;41619;42.816;23.226;2022-10-31T04:24:55;14.80;;;9.50;;
55314;SDS011;41619;42.816;23.226;2022-10-31T04:27:21;45.03;;;11.20;;
55314;SDS011;41619;42.816;23.226;2022-10-31T04:29:46;21.27;;;10.82;;
55314;SDS011;41619;42.816;23.226;2022-10-31T04:32:11;25.67;;;11.30;;
55314;SDS011;41619;42.816;23.226;2022-10-31T04:34:37;20.65;;;10.43;;
55314;SDS011;41619;42.816;23.226;2022-10-31T04:37:02;18.17;;;9.48;;
55314;SDS011;41619;42.816;23.226;2022-10-31T04:39:27;22.05;;;9.68;;
55314;SDS011;41619;42.816;23.226;2022-10-31T04:41:53;18.67;;;8.88;;
55314;SDS011;41619;42.816;23.226;2022-10-31T04:44:18;18.15;;;9.15;;
55314;SDS011;41619;42.816;23.226;2022-10-31T04:46:44;18.88;;;10.18;;
55314;SDS011;41619;42.816;23.226;2022-10-31T04:49:09;20.45;;;9.95;;
55314;SDS011;41619;42.816;23.226;2022-10-31T04:51:34;26.50;;;13.93;;
55314;SDS011;41619;42.816;23.226;2022-10-31T04:54:00;57.67;;;27.13;;
55314;SDS011;41619;42.816;23.226;2022-10-31T04:56:25;48.97;;;25.15;;
55314;SDS011;41619;42.816;23.226;2022-10-31T04:58:51;48.95;;;18.50;;
55314;SDS011;41619;42.816;23.226;2022-10-31T05:01:16;23.55;;;12.75;;
55314;SDS011;41619;42.816;23.226;2022-10-31T05:03:41;20.75;;;13.13;;
55314;SDS011;41619;42.816;23.226;2022-10-31T05:06:07;28.45;;;14.05;;
55314;SDS011;41619;42.816;23.226;2022-10-31T05:08:32;28.92;;;12.18;;
55314;SDS011;41619;42.816;23.226;2022-10-31T05:11:01;27.67;;;11.35;;
55314;SDS011;41619;42.816;23.226;2022-10-31T05:13:28;31.83;;;13.68;;
55314;SDS011;41619;42.816;23.226;2022-10-31T05:15:53;38.42;;;13.30;;
55314;SDS011;41619;42.816;23.226;2022-10-31T05:18:19;32.47;;;15.43;;
55314;SDS011;41619;42.816;23.226;2022-10-31T05:20:44;32.22;;;11.93;;
55314;SDS011;41619;42.816;23.226;2022-10-31T05:23:09;24.77;;;10.93;;
55314;SDS011;41619;42.816;23.226;2022-10-31T05:25:35;20.05;;;10.32;;
55314;SDS011;41619;42.816;23.226;2022-10-31T05:28:00;18.17;;;11.13;;
55314;SDS011;41619;42.816;23.226;2022-10-31T05:30:27;25.95;;;11.38;;
55314;SDS011;41619;42.816;23.226;2022-10-31T05:32:55;21.92;;;10.38;;
55314;SDS011;41619;42.816;23.226;2022-10-31T05:35:22;22.23;;;11.38;;
55314;SDS011;41619;42.816;23.226;2022-10-31T05:37:52;24.80;;;11.23;;
55314;SDS011;41619;42.816;23.226;2022-10-31T05:40:18;20.08;;;10.82;;
55314;SDS011;41619;42.816;23.226;2022-10-31T05:42:44;23.13;;;11.18;;
55314;SDS011;41619;42.816;23.226;2022-10-31T05:45:11;16.98;;;11.43;;
55314;SDS011;41619;42.816;23.226;2022-10-31T05:47:39;19.30;;;11.02;;
55314;SDS011;41619;42.816;23.226;2022-10-31T05:50:05;16.75;;;10.18;;
55314;SDS011;41619;42.816;23.226;2022-10-31T05:52:31;23.60;;;10.68;;
55314;SDS011;41619;42.816;23.226;2022-10-31T05:54:57;21.17;;;10.88;;
55314;SDS011;41619;42.816;23.226;2022-10-31T05:57:22;23.35;;;10.63;;
55314;SDS011;41619;42.816;23.226;2022-10-31T05:59:48;25.33;;;11.20;;
55314;SDS011;41619;42.816;23.226;2022-10-31T06:02:13;22.83;;;11.38;;
55314;SDS011;41619;42.816;23.226;2022-10-31T06:04:38;27.60;;;13.02;;
55314;SDS011;41619;42.816;23.226;2022-10-31T06:07:04;41.47;;;13.43;;
55314;SDS011;41619;42.816;23.226;2022-10-31T06:09:29;28.85;;;12.07;;
55314;SDS011;41619;42.816;23.226;2022-10-31T06:11:54;23.08;;;10.77;;
55314;SDS011;41619;42.816;23.226;2022-10-31T06:14:20;24.45;;;12.07;;
55314;SDS011;41619;42.816;23.226;2022-10-31T06:16:45;23.65;;;11.65;;
55314;SDS011;41619;42.816;23.226;2022-10-31T06:19:10;26.65;;;11.77;;
55314;SDS011;41619;42.816;23.226;2022-10-31T06:21:36;29.65;;;12.82;;
55314;SDS011;41619;42.816;23.226;2022-10-31T06:24:01;25.35;;;11.45;;
55314;SDS011;41619;42.816;23.226;2022-10-31T06:26:27;20.98;;;12.35;;
55314;SDS011;41619;42.816;23.226;2022-10-31T06:28:52;37.20;;;17.45;;
55314;SDS011;41619;42.816;23.226;2022-10-31T06:31:18;26.90;;;13.68;;
55314;SDS011;41619;42.816;23.226;2022-10-31T06:33:43;43.38;;;20.60;;
55314;SDS011;41619;42.816;23.226;2022-10-31T06:36:08;24.58;;;12.27;;
55314;SDS011;41619;42.816;23.226;2022-10-31T06:38:35;24.50;;;11.07;;
55314;SDS011;41619;42.816;23.226;2022-10-31T06:41:03;31.67;;;12.88;;
55314;SDS011;41619;42.816;23.226;2022-10-31T06:43:30;25.13;;;13.15;;
55314;SDS011;41619;42.816;23.226;2022-10-31T06:45:55;31.70;;;12.70;;
55314;SDS011;41619;42.816;23.226;2022-10-31T06:48:21;23.67;;;11.90;;
55314;SDS011;41619;42.816;23.226;2022-10-31T06:50:46;27.95;;;13.60;;
55314;SDS011;41619;42.816;23.226;2022-10-31T06:53:12;25.13;;;12.27;;
55314;SDS011;41619;42.816;23.226;2022-10-31T06:55:39;17.35;;;10.93;;
55314;SDS011;41619;42.816;23.226;2022-10-31T06:58:04;23.10;;;11.10;;
55314;SDS011;41619;42.816;23.226;2022-10-31T07:00:30;18.83;;;9.77;;
55314;SDS011;41619;42.816;23.226;2022-10-31T07:02:56;18.15;;;9.63;;
55314;SDS011;41619;42.816;23.226;2022-10-31T07:05:26;17.00;;;8.93;;
55314;SDS011;41619;42.816;23.226;2022-10-31T07:07:53;17.17;;;8.82;;
55314;SDS011;41619;42.816;23.226;2022-10-31T07:10:20;16.52;;;7.80;;
55314;SDS011;41619;42.816;23.226;2022-10-31T07:12:45;28.10;;;9.15;;
55314;SDS011;41619;42.816;23.226;2022-10-31T07:15:11;15.68;;;8.60;;
55314;SDS011;41619;42.816;23.226;2022-10-31T07:17:36;20.40;;;8.45;;
55314;SDS011;41619;42.816;23.226;2022-10-31T07:20:01;20.58;;;9.25;;
55314;SDS011;41619;42.816;23.226;2022-10-31T07:22:36;16.25;;;9.05;;
55314;SDS011;41619;42.816;23.226;2022-10-31T07:25:02;13.70;;;8.50;;
55314;SDS011;41619;42.816;23.226;2022-10-31T07:27:28;18.95;;;9.23;;
55314;SDS011;41619;42.816;23.226;2022-10-31T07:30:00;19.33;;;9.27;;
55314;SDS011;41619;42.816;23.226;2022-10-31T07:32:25;15.65;;;9.82;;
55314;SDS011;41619;42.816;23.226;2022-10-31T07:34:50;22.27;;;10.75;;
55314;SDS011;41619;42.816;23.226;2022-10-31T07:37:16;25.50;;;10.90;;
55314;SDS011;41619;42.816;23.226;2022-10-31T07:39:41;23.52;;;11.18;;
55314;SDS011;41619;42.816;23.226;2022-10-31T07:42:07;22.52;;;12.38;;
55314;SDS011;41619;42.816;23.226;2022-10-31T07:44:32;17.77;;;10.93;;
55314;SDS011;41619;42.816;23.226;2022-10-31T07:46:57;21.10;;;11.70;;
55314;SDS011;41619;42.816;23.226;2022-10-31T07:49:23;27.85;;;11.93;;
55314;SDS011;41619;42.816;23.226;2022-10-31T07:51:50;25.50;;;11.52;;
55314;SDS011;41619;42.816;23.226;2022-10-31T07:54:15;39.63;;;13.55;;
55314;SDS011;41619;42.816;23.226;2022-10-31T07:56:41;24.15;;;11.65;;
55314;SDS011;41619;42.816;23.226;2022-10-31T07:59:06;18.40;;;10.73;;
55314;SDS011;41619;42.816;23.226;2022-10-31T08:01:31;20.13;;;11.35;;
55314;SDS011;41619;42.816;23.226;2022-10-31T08:03:57;20.98;;;10.50;;
55314;SDS011;41619;42.816;23.226;2022-10-31T08:06:22;18.90;;;10.48;;
55314;SDS011;41619;42.816;23.226;2022-10-31T08:08:47;24.52;;;10.45;;
55314;SDS011;41619;42.816;23.226;2022-10-31T08:11:13;17.70;;;10.65;;
55314;SDS011;41619;42.816;23.226;2022-10-31T08:13:38;16.33;;;10.20;;
55314;SDS011;41619;42.816;23.226;2022-10-31T08:16:04;16.95;;;9.68;;
55314;SDS011;41619;42.816;23.226;2022-10-31T08:18:32;21.70;;;11.50;;
55314;SDS011;41619;42.816;23.226;2022-10-31T08:20:57;19.05;;;10.55;;
55314;SDS011;41619;42.816;23.226;2022-10-31T08:23:23;18.35;;;10.85;;
55314;SDS011;41619;42.816;23.226;2022-10-31T08:25:48;22.60;;;10.45;;
55314;SDS011;41619;42.816;23.226;2022-10-31T08:28:13;28.52;;;11.73;;
55314;SDS011;41619;42.816;23.226;2022-10-31T08:30:40;23.20;;;11.65;;
55314;SDS011;41619;42.816;23.226;2022-10-31T08:33:08;18.95;;;11.95;;
55314;SDS011;41619;42.816;23.226;2022-10-31T08:35:35;24.15;;;11.75;;
55314;SDS011;41619;42.816;23.226;2022-10-31T08:38:01;14.85;;;10.48;;
55314;SDS011;41619;42.816;23.226;2022-10-31T08:40:28;17.98;;;10.50;;
55314;SDS011;41619;42.816;23.226;2022-10-31T08:43:00;18.40;;;11.25;;
55314;SDS011;41619;42.816;23.226;2022-10-31T08:45:25;14.23;;;9.13;;
55314;SDS011;41619;42.816;23.226;2022-10-31T08:47:51;20.77;;;9.88;;
55314;SDS011;41619;42.816;23.226;2022-10-31T08:50:17;22.08;;;10.57;;
55314;SDS011;41619;42.816;23.226;2022-10-31T08:52:43;18.13;;;9.38;;
55314;SDS011;41619;42.816;23.226;2022-10-31T08:55:08;16.33;;;9.73;;
55314;SDS011;41619;42.816;23.226;2022-10-31T08:57:34;37.33;;;9.80;;
55314;SDS011;41619;42.816;23.226;2022-10-31T08:59:59;23.95;;;9.70;;
55314;SDS011;41619;42.816;23.226;2022-10-31T09:02:24;24.85;;;11.07;;
55314;SDS011;41619;42.816;23.226;2022-10-31T09:04:50;23.33;;;11.25;;
55314;SDS011;41619;42.816;23.226;2022-10-31T09:07:15;30.33;;;10.63;;
55314;SDS011;41619;42.816;23.226;2022-10-31T09:09:40;23.13;;;10.02;;
55314;SDS011;41619;42.816;23.226;2022-10-31T09:12:06;25.17;;;11.13;;
55314;SDS011;41619;42.816;23.226;2022-10-31T09:14:31;20.77;;;10.65;;
55314;SDS011;41619;42.816;23.226;2022-10-31T09:16:57;23.77;;;11.52;;
55314;SDS011;41619;42.816;23.226;2022-10-31T09:19:22;29.13;;;10.82;;
55314;SDS011;41619;42.816;23.226;2022-10-31T09:21:47;23.30;;;10.68;;
55314;SDS011;41619;42.816;23.226;2022-10-31T09:26:41;24.58;;;9.60;;
55314;SDS011;41619;42.816;23.226;2022-10-31T09:29:07;15.63;;;9.30;;
55314;SDS011;41619;42.816;23.226;2022-10-31T09:31:34;16.10;;;8.98;;
55314;SDS011;41619;42.816;23.226;2022-10-31T09:33:59;17.63;;;9.85;;
55314;SDS011;41619;42.816;23.226;2022-10-31T09:36:25;25.02;;;9.43;;
55314;SDS011;41619;42.816;23.226;2022-10-31T09:38:51;20.00;;;8.80;;
55314;SDS011;41619;42.816;23.226;2022-10-31T09:41:24;24.52;;;9.55;;
55314;SDS011;41619;42.816;23.226;2022-10-31T09:44:15;15.77;;;9.23;;
55314;SDS011;41619;42.816;23.226;2022-10-31T09:52:32;15.07;;;7.50;;
55314;SDS011;41619;42.816;23.226;2022-10-31T09:55:00;22.60;;;8.20;;
55314;SDS011;41619;42.816;23.226;2022-10-31T09:57:42;16.23;;;8.43;;
55314;SDS011;41619;42.816;23.226;2022-10-31T10:00:16;21.58;;;9.20;;
55314;SDS011;41619;42.816;23.226;2022-10-31T10:02:56;18.55;;;8.50;;
55314;SDS011;41619;42.816;23.226;2022-10-31T10:08:07;21.48;;;9.57;;
55314;SDS011;41619;42.816;23.226;2022-10-31T10:10:50;24.23;;;8.80;;
55314;SDS011;41619;42.816;23.226;2022-10-31T10:16:06;17.17;;;7.65;;
55314;SDS011;41619;42.816;23.226;2022-10-31T10:24:11;18.92;;;8.30;;
55314;SDS011;41619;42.816;23.226;2022-10-31T10:29:37;16.52;;;8.45;;
55314;SDS011;41619;42.816;23.226;2022-10-31T10:32:10;22.10;;;7.40;;
55314;SDS011;41619;42.816;23.226;2022-10-31T10:34:52;13.25;;;7.93;;
55314;SDS011;41619;42.816;23.226;2022-10-31T10:39:51;17.75;;;7.95;;
55314;SDS011;41619;42.816;23.226;2022-10-31T10:42:21;12.80;;;6.53;;
55314;SDS011;41619;42.816;23.226;2022-10-31T10:45:15;16.52;;;6.15;;
55314;SDS011;41619;42.816;23.226;2022-10-31T10:48:14;25.95;;;6.78;;
55314;SDS011;41619;42.816;23.226;2022-10-31T10:50:46;13.30;;;6.38;;
55314;SDS011;41619;42.816;23.226;2022-10-31T10:58:59;15.02;;;6.88;;
55314;SDS011;41619;42.816;23.226;2022-10-31T11:01:25;15.05;;;6.65;;
55314;SDS011;41619;42.816;23.226;2022-10-31T11:03:50;19.52;;;6.25;;
55314;SDS011;41619;42.816;23.226;2022-10-31T11:06:16;17.75;;;6.13;;
55314;SDS011;41619;42.816;23.226;2022-10-31T11:08:50;12.82;;;6.18;;
55314;SDS011;41619;42.816;23.226;2022-10-31T11:11:31;13.77;;;5.70;;
55314;SDS011;41619;42.816;23.226;2022-10-31T11:14:05;18.30;;;5.90;;
55314;SDS011;41619;42.816;23.226;2022-10-31T11:16:39;13.00;;;5.43;;
55314;SDS011;41619;42.816;23.226;2022-10-31T11:21:44;13.88;;;5.85;;
55314;SDS011;41619;42.816;23.226;2022-10-31T11:26:36;12.52;;;5.60;;
55314;SDS011;41619;42.816;23.226;2022-10-31T11:29:05;12.13;;;5.30;;
55314;SDS011;41619;42.816;23.226;2022-10-31T11:31:38;17.30;;;6.53;;
55314;SDS011;41619;42.816;23.226;2022-10-31T11:34:05;16.70;;;6.47;;
55314;SDS011;41619;42.816;23.226;2022-10-31T11:36:38;20.70;;;5.70;;
55314;SDS011;41619;42.816;23.226;2022-10-31T11:39:13;21.42;;;6.22;;
55314;SDS011;41619;42.816;23.226;2022-10-31T11:41:42;12.57;;;5.45;;
55314;SDS011;41619;42.816;23.226;2022-10-31T11:44:13;20.25;;;5.45;;
55314;SDS011;41619;42.816;23.226;2022-10-31T11:46:55;11.77;;;5.40;;
55314;SDS011;41619;42.816;23.226;2022-10-31T11:49:31;8.68;;;4.38;;
55314;SDS011;41619;42.816;23.226;2022-10-31T11:52:03;10.20;;;5.03;;
55314;SDS011;41619;42.816;23.226;2022-10-31T11:57:21;15.55;;;5.15;;
55314;SDS011;41619;42.816;23.226;2022-10-31T11:59:56;9.68;;;5.28;;
55314;SDS011;41619;42.816;23.226;2022-10-31T12:02:23;15.38;;;4.45;;
55314;SDS011;41619;42.816;23.226;2022-10-31T12:04:56;20.83;;;4.95;;
55314;SDS011;41619;42.816;23.226;2022-10-31T12:07:26;15.43;;;4.00;;
55314;SDS011;41619;42.816;23.226;2022-10-31T12:09:51;13.85;;;4.45;;
55314;SDS011;41619;42.816;23.226;2022-10-31T12:12:21;15.15;;;4.35;;
55314;SDS011;41619;42.816;23.226;2022-10-31T12:17:29;12.30;;;3.67;;
55314;SDS011;41619;42.816;23.226;2022-10-31T12:22:52;11.98;;;4.43;;
55314;SDS011;41619;42.816;23.226;2022-10-31T12:45:20;22.15;;;3.58;;
55314;SDS011;41619;42.816;23.226;2022-10-31T12:59:08;19.98;;;2.78;;
55314;SDS011;41619;42.816;23.226;2022-10-31T13:01:40;9.65;;;2.15;;
55314;SDS011;41619;42.816;23.226;2022-10-31T13:06:41;21.63;;;2.75;;
55314;SDS011;41619;42.816;23.226;2022-10-31T13:09:13;11.98;;;2.22;;
55314;SDS011;41619;42.816;23.226;2022-10-31T13:11:53;12.63;;;2.40;;
55314;SDS011;41619;42.816;23.226;2022-10-31T13:16:59;11.48;;;2.10;;
55314;SDS011;41619;42.816;23.226;2022-10-31T13:19:36;17.00;;;2.60;;
55314;SDS011;41619;42.816;23.226;2022-10-31T13:24:33;12.15;;;2.60;;
55314;SDS011;41619;42.816;23.226;2022-10-31T13:27:02;8.38;;;2.53;;
55314;SDS011;41619;42.816;23.226;2022-10-31T13:32:16;13.50;;;2.20;;
55314;SDS011;41619;42.816;23.226;2022-10-31T13:34:46;22.88;;;2.78;;
55314;SDS011;41619;42.816;23.226;2022-10-31T13:42:50;13.35;;;2.22;;
55314;SDS011;41619;42.816;23.226;2022-10-31T13:45:18;10.05;;;2.13;;
55314;SDS011;41619;42.816;23.226;2022-10-31T13:48:16;11.05;;;2.30;;
55314;SDS011;41619;42.816;23.226;2022-10-31T13:51:07;13.30;;;2.17;;
55314;SDS011;41619;42.816;23.226;2022-10-31T13:56:24;12.43;;;2.92;;
55314;SDS011;41619;42.816;23.226;2022-10-31T13:58:57;10.15;;;2.05;;
55314;SDS011;41619;42.816;23.226;2022-10-31T14:01:26;14.18;;;2.38;;
55314;SDS011;41619;42.816;23.226;2022-10-31T14:06:34;13.77;;;2.40;;
55314;SDS011;41619;42.816;23.226;2022-10-31T14:11:56;16.27;;;3.13;;
55314;SDS011;41619;42.816;23.226;2022-10-31T14:14:26;14.43;;;2.70;;
55314;SDS011;41619;42.816;23.226;2022-10-31T14:16:56;10.77;;;2.70;;
55314;SDS011;41619;42.816;23.226;2022-10-31T14:19:22;12.05;;;2.53;;
55314;SDS011;41619;42.816;23.226;2022-10-31T14:21:48;15.35;;;2.20;;
55314;SDS011;41619;42.816;23.226;2022-10-31T14:26:56;14.60;;;2.80;;
55314;SDS011;41619;42.816;23.226;2022-10-31T14:37:27;218.48;;;104.05;;
55314;SDS011;41619;42.816;23.226;2022-10-31T14:51:20;241.00;;;42.25;;
55314;SDS011;41619;42.816;23.226;2022-10-31T14:56:24;42.10;;;18.10;;
55314;SDS011;41619;42.816;23.226;2022-10-31T14:58:52;77.43;;;19.20;;
55314;SDS011;41619;42.816;23.226;2022-10-31T15:01:30;32.00;;;9.70;;
55314;SDS011;41619;42.816;23.226;2022-10-31T15:04:00;23.75;;;4.10;;
55314;SDS011;41619;42.816;23.226;2022-10-31T15:06:40;26.00;;;4.25;;
55314;SDS011;41619;42.816;23.226;2022-10-31T15:09:25;20.10;;;4.18;;
55314;SDS011;41619;42.816;23.226;2022-10-31T15:11:55;33.45;;;3.47;;
55314;SDS011;41619;42.816;23.226;2022-10-31T15:14:24;34.25;;;3.63;;
55314;SDS011;41619;42.816;23.226;2022-10-31T15:16:52;26.15;;;3.92;;
55314;SDS011;41619;42.816;23.226;2022-10-31T15:19:23;28.35;;;3.50;;
55314;SDS011;41619;42.816;23.226;2022-10-31T15:21:51;31.13;;;4.20;;
55314;SDS011;41619;42.816;23.226;2022-10-31T15:24:18;23.77;;;4.43;;
55314;SDS011;41619;42.816;23.226;2022-10-31T15:26:44;45.72;;;17.88;;
55314;SDS011;41619;42.816;23.226;2022-10-31T15:29:13;89.13;;;37.22;;
55314;SDS011;41619;42.816;23.226;2022-10-31T15:31:50;42.50;;;9.63;;
55314;SDS011;41619;42.816;23.226;2022-10-31T15:34:42;27.38;;;8.32;;
55314;SDS011;41619;42.816;23.226;2022-10-31T15:37:28;38.83;;;12.05;;
55314;SDS011;41619;42.816;23.226;2022-10-31T15:39:53;50.22;;;19.05;;
55314;SDS011;41619;42.816;23.226;2022-10-31T15:42:26;34.70;;;13.10;;
55314;SDS011;41619;42.816;23.226;2022-10-31T15:45:02;87.65;;;15.93;;
55314;SDS011;41619;42.816;23.226;2022-10-31T15:53:02;94.95;;;43.00;;
55314;SDS011;41619;42.816;23.226;2022-10-31T15:55:32;112.55;;;51.90;;
55314;SDS011;41619;42.816;23.226;2022-10-31T15:58:02;101.18;;;40.47;;
55314;SDS011;41619;42.816;23.226;2022-10-31T16:00:35;86.28;;;33.08;;
55314;SDS011;41619;42.816;23.226;2022-10-31T16:05:37;88.38;;;33.53;;
55314;SDS011;41619;42.816;23.226;2022-10-31T16:08:04;131.95;;;45.92;;
55314;SDS011;41619;42.816;23.226;2022-10-31T16:10:48;111.35;;;41.00;;
55314;SDS011;41619;42.816;23.226;2022-10-31T16:13:14;253.32;;;98.68;;
55314;SDS011;41619;42.816;23.226;2022-10-31T16:15:46;314.92;;;136.63;;
55314;SDS011;41619;42.816;23.226;2022-10-31T16:18:16;302.88;;;130.10;;
55314;SDS011;41619;42.816;23.226;2022-10-31T16:20:46;318.80;;;136.05;;
55314;SDS011;41619;42.816;23.226;2022-10-31T16:23:21;257.33;;;104.40;;
55314;SDS011;41619;42.816;23.226;2022-10-31T16:25:49;196.02;;;80.53;;
55314;SDS011;41619;42.816;23.226;2022-10-31T16:28:16;199.68;;;79.25;;
55314;SDS011;41619;42.816;23.226;2022-10-31T16:30:45;161.80;;;59.50;;
55314;SDS011;41619;42.816;23.226;2022-10-31T16:35:46;94.28;;;35.85;;
55314;SDS011;41619;42.816;23.226;2022-10-31T16:38:13;99.95;;;36.30;;
55314;SDS011;41619;42.816;23.226;2022-10-31T16:40:38;102.30;;;33.20;;
55314;SDS011;41619;42.816;23.226;2022-10-31T16:43:04;78.93;;;29.95;;
55314;SDS011;41619;42.816;23.226;2022-10-31T16:45:35;71.55;;;31.73;;
55314;SDS011;41619;42.816;23.226;2022-10-31T16:48:03;74.57;;;29.52;;
55314;SDS011;41619;42.816;23.226;2022-10-31T16:50:30;83.85;;;33.83;;
55314;SDS011;41619;42.816;23.226;2022-10-31T16:52:55;89.53;;;39.65;;
55314;SDS011;41619;42.816;23.226;2022-10-31T16:55:20;120.32;;;45.92;;
55314;SDS011;41619;42.816;23.226;2022-10-31T16:57:47;101.30;;;39.88;;
55314;SDS011;41619;42.816;23.226;2022-10-31T17:00:18;153.25;;;59.78;;
55314;SDS011;41619;42.816;23.226;2022-10-31T17:02:46;353.08;;;114.68;;
55314;SDS011;41619;42.816;23.226;2022-10-31T17:05:14;313.38;;;111.38;;